sensor_id;sensor_type;location;lat;lon;timestamp;temperature;humidity
28761;DHT22;15917;50.014;8.352;2024-02-23T00:01:35;8.90;99.90
28761;DHT22;15917;50.014;8.352;2024-02-23T00:04:00;8.80;99.90
28761;DHT22;15917;50.014;8.352;2024-02-23T00:06:28;8.80;99.90
28761;DHT22;15917;50.014;8.352;2024-02-23T00:08:54;8.80;99.90
28761;DHT22;15917;50.014;8.352;2024-02-23T00:11:23;8.70;99.90
28761;DHT22;15917;50.014;8.352;2024-02-23T00:13:49;8.70;99.90
28761;DHT22;15917;50.014;8.352;2024-02-23T00:16:14;8.60;99.90
28761;DHT22;15917;50.014;8.352;2024-02-23T00:18:40;8.60;99.90
28761;DHT22;15917;50.014;8.352;2024-02-23T00:21:06;8.60;99.90
28761;DHT22;15917;50.014;8.352;2024-02-23T00:23:32;8.60;99.90
28761;DHT22;15917;50.014;8.352;2024-02-23T00:25:57;8.60;99.90
28761;DHT22;15917;50.014;8.352;2024-02-23T00:28:23;8.60;99.90
28761;DHT22;15917;50.014;8.352;2024-02-23T00:30:48;8.50;99.90
28761;DHT22;15917;50.014;8.352;2024-02-23T00:33:14;8.50;99.90
28761;DHT22;15917;50.014;8.352;2024-02-23T00:35:40;8.50;99.90
28761;DHT22;15917;50.014;8.352;2024-02-23T00:38:05;8.50;99.90
28761;DHT22;15917;50.014;8.352;2024-02-23T00:40:33;8.40;99.90
28761;DHT22;15917;50.014;8.352;2024-02-23T00:42:58;8.40;99.90
28761;DHT22;15917;50.014;8.352;2024-02-23T00:45:25;8.40;99.90
28761;DHT22;15917;50.014;8.352;2024-02-23T00:47:51;8.40;99.90
28761;DHT22;15917;50.014;8.352;2024-02-23T00:50:16;8.40;99.90
28761;DHT22;15917;50.014;8.352;2024-02-23T00:52:42;8.40;99.90
28761;DHT22;15917;50.014;8.352;2024-02-23T00:55:08;8.40;99.90
28761;DHT22;15917;50.014;8.352;2024-02-23T00:57:35;8.30;99.90
28761;DHT22;15917;50.014;8.352;2024-02-23T01:00:01;8.30;99.90
28761;DHT22;15917;50.014;8.352;2024-02-23T01:02:28;8.30;99.90
28761;DHT22;15917;50.014;8.352;2024-02-23T01:04:55;8.20;99.90
28761;DHT22;15917;50.014;8.352;2024-02-23T01:07:22;8.30;99.90
28761;DHT22;15917;50.014;8.352;2024-02-23T01:09:48;8.20;99.90
28761;DHT22;15917;50.014;8.352;2024-02-23T01:12:14;8.20;99.90
28761;DHT22;15917;50.014;8.352;2024-02-23T01:14:39;8.20;99.90
28761;DHT22;15917;50.014;8.352;2024-02-23T01:17:05;8.20;99.90
28761;DHT22;15917;50.014;8.352;2024-02-23T01:19:30;8.20;99.90
28761;DHT22;15917;50.014;8.352;2024-02-23T01:21:56;8.20;99.90
28761;DHT22;15917;50.014;8.352;2024-02-23T01:24:28;8.20;99.90
28761;DHT22;15917;50.014;8.352;2024-02-23T01:26:55;8.10;99.90
28761;DHT22;15917;50.014;8.352;2024-02-23T01:29:22;8.10;99.90
28761;DHT22;15917;50.014;8.352;2024-02-23T01:31:48;8.10;99.90
28761;DHT22;15917;50.014;8.352;2024-02-23T01:34:14;8.10;99.90
28761;DHT22;15917;50.014;8.352;2024-02-23T01:36:40;8.10;99.90
28761;DHT22;15917;50.014;8.352;2024-02-23T01:39:06;8.10;99.90
28761;DHT22;15917;50.014;8.352;2024-02-23T01:41:31;8.10;99.90
28761;DHT22;15917;50.014;8.352;2024-02-23T01:43:57;8.10;99.90
28761;DHT22;15917;50.014;8.352;2024-02-23T01:46:23;8.00;99.90
28761;DHT22;15917;50.014;8.352;2024-02-23T01:48:49;8.00;99.90
28761;DHT22;15917;50.014;8.352;2024-02-23T01:51:15;7.90;99.90
28761;DHT22;15917;50.014;8.352;2024-02-23T01:53:41;7.90;99.90
28761;DHT22;15917;50.014;8.352;2024-02-23T01:56:06;7.90;99.90
28761;DHT22;15917;50.014;8.352;2024-02-23T01:58:35;7.80;99.90
28761;DHT22;15917;50.014;8.352;2024-02-23T02:01:01;7.80;99.90
28761;DHT22;15917;50.014;8.352;2024-02-23T02:03:26;7.70;99.90
28761;DHT22;15917;50.014;8.352;2024-02-23T02:05:53;7.70;99.90
28761;DHT22;15917;50.014;8.352;2024-02-23T02:08:19;7.60;99.90
28761;DHT22;15917;50.014;8.352;2024-02-23T02:10:45;7.60;99.90
28761;DHT22;15917;50.014;8.352;2024-02-23T02:13:12;7.50;99.90
28761;DHT22;15917;50.014;8.352;2024-02-23T02:15:38;7.50;99.90
28761;DHT22;15917;50.014;8.352;2024-02-23T02:18:04;7.50;99.90
28761;DHT22;15917;50.014;8.352;2024-02-23T02:20:33;7.50;99.90
28761;DHT22;15917;50.014;8.352;2024-02-23T02:22:59;7.40;99.90
28761;DHT22;15917;50.014;8.352;2024-02-23T02:25:24;7.40;99.90
28761;DHT22;15917;50.014;8.352;2024-02-23T02:27:50;7.30;99.90
28761;DHT22;15917;50.014;8.352;2024-02-23T02:30:16;7.30;99.90
28761;DHT22;15917;50.014;8.352;2024-02-23T02:32:41;7.30;99.90
28761;DHT22;15917;50.014;8.352;2024-02-23T02:35:09;7.20;99.90
28761;DHT22;15917;50.014;8.352;2024-02-23T02:37:35;7.20;99.90
28761;DHT22;15917;50.014;8.352;2024-02-23T02:40:01;7.20;99.90
28761;DHT22;15917;50.014;8.352;2024-02-23T02:42:28;7.10;99.90
28761;DHT22;15917;50.014;8.352;2024-02-23T02:44:54;7.10;99.90
28761;DHT22;15917;50.014;8.352;2024-02-23T02:47:19;7.00;99.90
28761;DHT22;15917;50.014;8.352;2024-02-23T02:49:45;7.00;99.90
28761;DHT22;15917;50.014;8.352;2024-02-23T02:52:11;7.00;99.90
28761;DHT22;15917;50.014;8.352;2024-02-23T02:54:36;6.90;99.90
28761;DHT22;15917;50.014;8.352;2024-02-23T02:57:02;6.80;99.90
28761;DHT22;15917;50.014;8.352;2024-02-23T02:59:28;6.80;99.90
28761;DHT22;15917;50.014;8.352;2024-02-23T03:01:53;6.80;99.90
28761;DHT22;15917;50.014;8.352;2024-02-23T03:04:19;6.80;99.90
28761;DHT22;15917;50.014;8.352;2024-02-23T03:06:45;6.80;99.90
28761;DHT22;15917;50.014;8.352;2024-02-23T03:09:10;6.70;99.90
28761;DHT22;15917;50.014;8.352;2024-02-23T03:11:36;6.80;99.90
28761;DHT22;15917;50.014;8.352;2024-02-23T03:14:02;6.80;99.90
28761;DHT22;15917;50.014;8.352;2024-02-23T03:16:28;6.80;99.90
28761;DHT22;15917;50.014;8.352;2024-02-23T03:18:56;6.70;99.90
28761;DHT22;15917;50.014;8.352;2024-02-23T03:21:22;6.70;99.90
28761;DHT22;15917;50.014;8.352;2024-02-23T03:23:47;6.60;99.90
28761;DHT22;15917;50.014;8.352;2024-02-23T03:26:13;6.60;99.90
28761;DHT22;15917;50.014;8.352;2024-02-23T03:28:39;6.60;99.90
28761;DHT22;15917;50.014;8.352;2024-02-23T03:31:04;6.50;99.90
28761;DHT22;15917;50.014;8.352;2024-02-23T03:33:30;6.50;99.90
28761;DHT22;15917;50.014;8.352;2024-02-23T03:35:57;6.50;99.90
28761;DHT22;15917;50.014;8.352;2024-02-23T03:38:23;6.40;99.90
28761;DHT22;15917;50.014;8.352;2024-02-23T03:40:49;6.40;99.90
28761;DHT22;15917;50.014;8.352;2024-02-23T03:43:14;6.40;99.90
28761;DHT22;15917;50.014;8.352;2024-02-23T03:45:40;6.30;99.90
28761;DHT22;15917;50.014;8.352;2024-02-23T03:48:05;6.30;99.90
28761;DHT22;15917;50.014;8.352;2024-02-23T03:50:31;6.30;99.90
28761;DHT22;15917;50.014;8.352;2024-02-23T03:52:57;6.30;99.90
28761;DHT22;15917;50.014;8.352;2024-02-23T03:55:22;6.30;99.90
28761;DHT22;15917;50.014;8.352;2024-02-23T03:57:48;6.20;99.90
28761;DHT22;15917;50.014;8.352;2024-02-23T04:00:15;6.30;99.90
28761;DHT22;15917;50.014;8.352;2024-02-23T04:02:41;6.20;99.90
28761;DHT22;15917;50.014;8.352;2024-02-23T04:05:07;6.20;99.90
28761;DHT22;15917;50.014;8.352;2024-02-23T04:07:32;6.10;99.90
28761;DHT22;15917;50.014;8.352;2024-02-23T04:09:58;6.10;99.90
28761;DHT22;15917;50.014;8.352;2024-02-23T04:12:24;6.10;99.90
28761;DHT22;15917;50.014;8.352;2024-02-23T04:14:50;6.10;99.90
28761;DHT22;15917;50.014;8.352;2024-02-23T04:17:15;6.20;99.90
28761;DHT22;15917;50.014;8.352;2024-02-23T04:19:42;6.20;99.90
28761;DHT22;15917;50.014;8.352;2024-02-23T04:22:08;6.20;99.90
28761;DHT22;15917;50.014;8.352;2024-02-23T04:24:38;6.20;99.90
28761;DHT22;15917;50.014;8.352;2024-02-23T04:27:04;6.20;99.90
28761;DHT22;15917;50.014;8.352;2024-02-23T04:29:30;6.20;99.90
28761;DHT22;15917;50.014;8.352;2024-02-23T04:31:56;6.10;99.90
28761;DHT22;15917;50.014;8.352;2024-02-23T04:34:22;6.10;99.90
28761;DHT22;15917;50.014;8.352;2024-02-23T04:36:47;6.10;99.90
28761;DHT22;15917;50.014;8.352;2024-02-23T04:39:13;6.10;99.90
28761;DHT22;15917;50.014;8.352;2024-02-23T04:41:38;6.00;99.90
28761;DHT22;15917;50.014;8.352;2024-02-23T04:44:04;6.00;99.90
28761;DHT22;15917;50.014;8.352;2024-02-23T04:46:30;6.00;99.90
28761;DHT22;15917;50.014;8.352;2024-02-23T04:48:56;6.00;99.90
28761;DHT22;15917;50.014;8.352;2024-02-23T04:51:22;5.90;99.90
28761;DHT22;15917;50.014;8.352;2024-02-23T04:53:49;5.90;99.90
28761;DHT22;15917;50.014;8.352;2024-02-23T04:56:15;5.90;99.90
28761;DHT22;15917;50.014;8.352;2024-02-23T04:58:40;5.80;99.90
28761;DHT22;15917;50.014;8.352;2024-02-23T05:01:08;5.80;99.90
28761;DHT22;15917;50.014;8.352;2024-02-23T05:03:34;5.90;99.90
28761;DHT22;15917;50.014;8.352;2024-02-23T05:05:59;5.80;99.90
28761;DHT22;15917;50.014;8.352;2024-02-23T05:08:25;5.80;99.90
28761;DHT22;15917;50.014;8.352;2024-02-23T05:10:53;5.80;99.90
28761;DHT22;15917;50.014;8.352;2024-02-23T05:13:18;5.80;99.90
28761;DHT22;15917;50.014;8.352;2024-02-23T05:15:44;5.90;99.90
28761;DHT22;15917;50.014;8.352;2024-02-23T05:18:09;5.80;99.90
28761;DHT22;15917;50.014;8.352;2024-02-23T05:20:35;5.80;99.90
28761;DHT22;15917;50.014;8.352;2024-02-23T05:23:01;5.80;99.90
28761;DHT22;15917;50.014;8.352;2024-02-23T05:25:26;5.80;99.90
28761;DHT22;15917;50.014;8.352;2024-02-23T05:27:52;5.80;99.90
28761;DHT22;15917;50.014;8.352;2024-02-23T05:30:18;5.80;99.90
28761;DHT22;15917;50.014;8.352;2024-02-23T05:32:43;5.80;99.90
28761;DHT22;15917;50.014;8.352;2024-02-23T05:35:09;5.80;99.90
28761;DHT22;15917;50.014;8.352;2024-02-23T05:37:37;5.80;99.90
28761;DHT22;15917;50.014;8.352;2024-02-23T05:40:04;5.80;99.90
28761;DHT22;15917;50.014;8.352;2024-02-23T05:42:32;5.80;99.90
28761;DHT22;15917;50.014;8.352;2024-02-23T05:44:58;5.80;99.90
28761;DHT22;15917;50.014;8.352;2024-02-23T05:47:24;5.80;99.90
28761;DHT22;15917;50.014;8.352;2024-02-23T05:49:50;5.80;99.90
28761;DHT22;15917;50.014;8.352;2024-02-23T05:52:16;5.80;99.90
28761;DHT22;15917;50.014;8.352;2024-02-23T05:54:41;5.80;99.90
28761;DHT22;15917;50.014;8.352;2024-02-23T05:57:07;5.80;99.90
28761;DHT22;15917;50.014;8.352;2024-02-23T05:59:33;5.80;99.90
28761;DHT22;15917;50.014;8.352;2024-02-23T06:01:59;5.70;99.90
28761;DHT22;15917;50.014;8.352;2024-02-23T06:04:25;5.80;99.90
28761;DHT22;15917;50.014;8.352;2024-02-23T06:06:51;5.80;99.90
28761;DHT22;15917;50.014;8.352;2024-02-23T06:09:16;5.80;99.90
28761;DHT22;15917;50.014;8.352;2024-02-23T06:11:42;5.80;99.90
28761;DHT22;15917;50.014;8.352;2024-02-23T06:14:08;5.80;99.90
28761;DHT22;15917;50.014;8.352;2024-02-23T06:16:34;5.80;99.90
28761;DHT22;15917;50.014;8.352;2024-02-23T06:18:59;6.10;99.90
28761;DHT22;15917;50.014;8.352;2024-02-23T06:21:25;6.40;99.90
28761;DHT22;15917;50.014;8.352;2024-02-23T06:23:50;6.50;99.90
28761;DHT22;15917;50.014;8.352;2024-02-23T06:26:16;6.40;99.90
28761;DHT22;15917;50.014;8.352;2024-02-23T06:28:42;6.40;99.90
28761;DHT22;15917;50.014;8.352;2024-02-23T06:31:08;6.20;99.90
28761;DHT22;15917;50.014;8.352;2024-02-23T06:33:34;6.10;99.90
28761;DHT22;15917;50.014;8.352;2024-02-23T06:36:00;6.10;99.90
28761;DHT22;15917;50.014;8.352;2024-02-23T06:38:27;5.90;99.90
28761;DHT22;15917;50.014;8.352;2024-02-23T06:40:52;5.90;99.90
28761;DHT22;15917;50.014;8.352;2024-02-23T06:43:18;5.70;99.90
28761;DHT22;15917;50.014;8.352;2024-02-23T06:45:44;5.70;99.90
28761;DHT22;15917;50.014;8.352;2024-02-23T06:48:10;5.60;99.90
28761;DHT22;15917;50.014;8.352;2024-02-23T06:50:35;5.60;99.90
28761;DHT22;15917;50.014;8.352;2024-02-23T06:53:01;5.60;99.90
28761;DHT22;15917;50.014;8.352;2024-02-23T06:55:28;5.60;99.90
28761;DHT22;15917;50.014;8.352;2024-02-23T06:57:54;5.70;99.90
28761;DHT22;15917;50.014;8.352;2024-02-23T07:00:20;5.70;99.90
28761;DHT22;15917;50.014;8.352;2024-02-23T07:02:47;5.70;99.90
28761;DHT22;15917;50.014;8.352;2024-02-23T07:05:12;5.70;99.90
28761;DHT22;15917;50.014;8.352;2024-02-23T07:07:39;5.70;99.90
28761;DHT22;15917;50.014;8.352;2024-02-23T07:10:06;5.70;99.90
28761;DHT22;15917;50.014;8.352;2024-02-23T07:12:32;5.70;99.90
28761;DHT22;15917;50.014;8.352;2024-02-23T07:14:58;5.70;99.90
28761;DHT22;15917;50.014;8.352;2024-02-23T07:17:23;5.70;99.90
28761;DHT22;15917;50.014;8.352;2024-02-23T07:19:49;5.80;99.90
28761;DHT22;15917;50.014;8.352;2024-02-23T07:22:16;5.90;99.90
28761;DHT22;15917;50.014;8.352;2024-02-23T07:24:44;6.10;99.90
28761;DHT22;15917;50.014;8.352;2024-02-23T07:27:09;6.10;99.90
28761;DHT22;15917;50.014;8.352;2024-02-23T07:29:35;6.20;99.90
28761;DHT22;15917;50.014;8.352;2024-02-23T07:32:01;6.10;99.90
28761;DHT22;15917;50.014;8.352;2024-02-23T07:34:27;6.10;99.90
28761;DHT22;15917;50.014;8.352;2024-02-23T07:36:53;6.10;99.90
28761;DHT22;15917;50.014;8.352;2024-02-23T07:39:19;6.20;99.90
28761;DHT22;15917;50.014;8.352;2024-02-23T07:41:45;6.20;99.90
28761;DHT22;15917;50.014;8.352;2024-02-23T07:44:11;6.30;99.90
28761;DHT22;15917;50.014;8.352;2024-02-23T07:46:37;6.30;99.90
28761;DHT22;15917;50.014;8.352;2024-02-23T07:49:03;6.40;99.90
28761;DHT22;15917;50.014;8.352;2024-02-23T07:51:29;7.10;99.90
28761;DHT22;15917;50.014;8.352;2024-02-23T07:53:54;6.90;99.90
28761;DHT22;15917;50.014;8.352;2024-02-23T07:56:20;6.70;99.90
28761;DHT22;15917;50.014;8.352;2024-02-23T07:58:46;6.60;99.90
28761;DHT22;15917;50.014;8.352;2024-02-23T08:01:14;6.50;99.90
28761;DHT22;15917;50.014;8.352;2024-02-23T08:03:40;6.50;99.90
28761;DHT22;15917;50.014;8.352;2024-02-23T08:06:06;6.40;99.90
28761;DHT22;15917;50.014;8.352;2024-02-23T08:08:32;6.40;99.90
28761;DHT22;15917;50.014;8.352;2024-02-23T08:11:04;6.50;99.90
28761;DHT22;15917;50.014;8.352;2024-02-23T08:13:30;6.50;99.90
28761;DHT22;15917;50.014;8.352;2024-02-23T08:15:57;6.50;99.90
28761;DHT22;15917;50.014;8.352;2024-02-23T08:18:23;6.40;99.90
28761;DHT22;15917;50.014;8.352;2024-02-23T08:20:48;6.50;99.90
28761;DHT22;15917;50.014;8.352;2024-02-23T08:23:14;6.50;99.90
28761;DHT22;15917;50.014;8.352;2024-02-23T08:25:40;6.50;99.90
28761;DHT22;15917;50.014;8.352;2024-02-23T08:28:06;6.50;99.90
28761;DHT22;15917;50.014;8.352;2024-02-23T08:30:32;6.50;99.90
28761;DHT22;15917;50.014;8.352;2024-02-23T08:32:57;6.50;99.90
28761;DHT22;15917;50.014;8.352;2024-02-23T08:35:23;6.60;99.90
28761;DHT22;15917;50.014;8.352;2024-02-23T08:37:49;6.60;99.90
28761;DHT22;15917;50.014;8.352;2024-02-23T08:40:15;6.60;99.90
28761;DHT22;15917;50.014;8.352;2024-02-23T08:42:40;6.80;99.90
28761;DHT22;15917;50.014;8.352;2024-02-23T08:45:06;6.80;99.90
28761;DHT22;15917;50.014;8.352;2024-02-23T08:47:32;6.90;99.90
28761;DHT22;15917;50.014;8.352;2024-02-23T08:50:00;6.90;99.90
28761;DHT22;15917;50.014;8.352;2024-02-23T08:52:25;6.80;99.90
28761;DHT22;15917;50.014;8.352;2024-02-23T08:54:51;6.80;99.90
28761;DHT22;15917;50.014;8.352;2024-02-23T08:57:17;6.80;99.90
28761;DHT22;15917;50.014;8.352;2024-02-23T08:59:45;6.90;99.90
28761;DHT22;15917;50.014;8.352;2024-02-23T09:02:11;6.90;99.90
28761;DHT22;15917;50.014;8.352;2024-02-23T09:04:37;6.80;99.90
28761;DHT22;15917;50.014;8.352;2024-02-23T09:07:03;6.80;99.90
28761;DHT22;15917;50.014;8.352;2024-02-23T09:09:28;6.90;99.90
28761;DHT22;15917;50.014;8.352;2024-02-23T09:11:54;6.80;99.90
28761;DHT22;15917;50.014;8.352;2024-02-23T09:14:20;6.90;99.90
28761;DHT22;15917;50.014;8.352;2024-02-23T09:16:45;6.90;99.90
28761;DHT22;15917;50.014;8.352;2024-02-23T09:19:19;6.90;99.90
28761;DHT22;15917;50.014;8.352;2024-02-23T09:21:45;7.00;99.90
28761;DHT22;15917;50.014;8.352;2024-02-23T09:24:12;7.00;99.90
28761;DHT22;15917;50.014;8.352;2024-02-23T09:26:38;7.00;99.90
28761;DHT22;15917;50.014;8.352;2024-02-23T09:29:04;7.10;99.90
28761;DHT22;15917;50.014;8.352;2024-02-23T09:31:30;7.20;99.90
28761;DHT22;15917;50.014;8.352;2024-02-23T09:33:57;7.20;99.90
28761;DHT22;15917;50.014;8.352;2024-02-23T09:36:23;7.20;99.90
28761;DHT22;15917;50.014;8.352;2024-02-23T09:38:50;7.20;99.90
28761;DHT22;15917;50.014;8.352;2024-02-23T09:41:23;7.20;99.90
28761;DHT22;15917;50.014;8.352;2024-02-23T09:43:50;7.30;99.90
28761;DHT22;15917;50.014;8.352;2024-02-23T09:46:17;7.30;99.90
28761;DHT22;15917;50.014;8.352;2024-02-23T09:48:47;7.40;99.90
28761;DHT22;15917;50.014;8.352;2024-02-23T09:51:14;7.40;99.90
28761;DHT22;15917;50.014;8.352;2024-02-23T09:53:41;7.40;99.90
28761;DHT22;15917;50.014;8.352;2024-02-23T09:56:08;7.40;99.90
28761;DHT22;15917;50.014;8.352;2024-02-23T09:58:35;7.50;99.90
28761;DHT22;15917;50.014;8.352;2024-02-23T10:01:02;7.60;99.90
28761;DHT22;15917;50.014;8.352;2024-02-23T10:03:29;7.70;99.90
28761;DHT22;15917;50.014;8.352;2024-02-23T10:05:56;7.70;99.90
28761;DHT22;15917;50.014;8.352;2024-02-23T10:08:22;7.80;99.90
28761;DHT22;15917;50.014;8.352;2024-02-23T10:10:47;7.80;99.90
28761;DHT22;15917;50.014;8.352;2024-02-23T10:13:22;7.80;99.90
28761;DHT22;15917;50.014;8.352;2024-02-23T10:15:49;7.80;99.90
28761;DHT22;15917;50.014;8.352;2024-02-23T10:18:16;7.80;99.90
28761;DHT22;15917;50.014;8.352;2024-02-23T10:20:42;7.80;99.90
28761;DHT22;15917;50.014;8.352;2024-02-23T10:23:08;7.80;99.90
28761;DHT22;15917;50.014;8.352;2024-02-23T10:25:34;7.70;99.90
28761;DHT22;15917;50.014;8.352;2024-02-23T10:28:07;7.70;99.90
28761;DHT22;15917;50.014;8.352;2024-02-23T10:30:33;7.70;99.90
28761;DHT22;15917;50.014;8.352;2024-02-23T10:32:59;7.80;99.90
28761;DHT22;15917;50.014;8.352;2024-02-23T10:35:25;7.90;99.90
28761;DHT22;15917;50.014;8.352;2024-02-23T10:37:53;8.00;99.90
28761;DHT22;15917;50.014;8.352;2024-02-23T10:40:20;8.10;99.90
28761;DHT22;15917;50.014;8.352;2024-02-23T10:42:48;8.20;99.90
28761;DHT22;15917;50.014;8.352;2024-02-23T10:45:18;8.30;99.90
28761;DHT22;15917;50.014;8.352;2024-02-23T10:47:44;8.20;99.90
28761;DHT22;15917;50.014;8.352;2024-02-23T10:50:10;8.20;99.90
28761;DHT22;15917;50.014;8.352;2024-02-23T10:52:41;8.20;99.90
28761;DHT22;15917;50.014;8.352;2024-02-23T10:55:08;8.20;99.90
28761;DHT22;15917;50.014;8.352;2024-02-23T10:57:37;8.20;99.90
28761;DHT22;15917;50.014;8.352;2024-02-23T11:00:05;8.20;99.90
28761;DHT22;15917;50.014;8.352;2024-02-23T11:02:37;8.20;99.90
28761;DHT22;15917;50.014;8.352;2024-02-23T11:05:04;8.20;99.90
28761;DHT22;15917;50.014;8.352;2024-02-23T11:07:30;8.30;99.90
28761;DHT22;15917;50.014;8.352;2024-02-23T11:09:59;8.70;99.90
28761;DHT22;15917;50.014;8.352;2024-02-23T11:12:25;8.80;99.90
28761;DHT22;15917;50.014;8.352;2024-02-23T11:14:56;8.90;99.90
28761;DHT22;15917;50.014;8.352;2024-02-23T11:17:22;9.10;99.90
28761;DHT22;15917;50.014;8.352;2024-02-23T11:19:51;9.20;99.90
28761;DHT22;15917;50.014;8.352;2024-02-23T11:22:27;9.20;99.90
28761;DHT22;15917;50.014;8.352;2024-02-23T11:25:00;9.20;99.90
28761;DHT22;15917;50.014;8.352;2024-02-23T11:27:30;9.70;99.90
28761;DHT22;15917;50.014;8.352;2024-02-23T11:30:07;10.10;99.90
28761;DHT22;15917;50.014;8.352;2024-02-23T11:32:45;10.30;99.90
28761;DHT22;15917;50.014;8.352;2024-02-23T11:35:13;10.40;99.90
28761;DHT22;15917;50.014;8.352;2024-02-23T11:37:53;10.30;99.90
28761;DHT22;15917;50.014;8.352;2024-02-23T11:40:25;10.60;99.90
28761;DHT22;15917;50.014;8.352;2024-02-23T11:42:51;10.80;99.90
28761;DHT22;15917;50.014;8.352;2024-02-23T11:45:17;10.80;99.90
28761;DHT22;15917;50.014;8.352;2024-02-23T11:47:43;10.90;99.90
28761;DHT22;15917;50.014;8.352;2024-02-23T11:50:09;11.00;99.90
28761;DHT22;15917;50.014;8.352;2024-02-23T11:52:37;11.00;99.90
28761;DHT22;15917;50.014;8.352;2024-02-23T11:55:03;10.80;99.90
28761;DHT22;15917;50.014;8.352;2024-02-23T11:57:31;10.50;99.90
28761;DHT22;15917;50.014;8.352;2024-02-23T11:59:57;10.30;99.90
28761;DHT22;15917;50.014;8.352;2024-02-23T12:02:24;10.40;99.90
28761;DHT22;15917;50.014;8.352;2024-02-23T12:04:49;10.20;99.90
28761;DHT22;15917;50.014;8.352;2024-02-23T12:07:15;10.10;99.90
28761;DHT22;15917;50.014;8.352;2024-02-23T12:09:41;9.90;99.90
28761;DHT22;15917;50.014;8.352;2024-02-23T12:12:07;10.00;99.90
28761;DHT22;15917;50.014;8.352;2024-02-23T12:14:37;10.10;99.90
28761;DHT22;15917;50.014;8.352;2024-02-23T12:17:04;10.10;99.90
28761;DHT22;15917;50.014;8.352;2024-02-23T12:19:32;9.90;99.90
28761;DHT22;15917;50.014;8.352;2024-02-23T12:22:01;9.80;99.90
28761;DHT22;15917;50.014;8.352;2024-02-23T12:24:27;9.70;99.90
28761;DHT22;15917;50.014;8.352;2024-02-23T12:26:55;9.60;99.90
28761;DHT22;15917;50.014;8.352;2024-02-23T12:29:21;9.60;99.90
28761;DHT22;15917;50.014;8.352;2024-02-23T12:31:47;9.50;99.90
28761;DHT22;15917;50.014;8.352;2024-02-23T12:34:13;9.50;99.90
28761;DHT22;15917;50.014;8.352;2024-02-23T12:36:39;9.50;99.90
28761;DHT22;15917;50.014;8.352;2024-02-23T12:39:05;9.50;99.90
28761;DHT22;15917;50.014;8.352;2024-02-23T12:41:31;9.50;99.90
28761;DHT22;15917;50.014;8.352;2024-02-23T12:43:56;9.40;99.90
28761;DHT22;15917;50.014;8.352;2024-02-23T12:46:22;9.40;99.90
28761;DHT22;15917;50.014;8.352;2024-02-23T12:48:49;9.40;99.90
28761;DHT22;15917;50.014;8.352;2024-02-23T12:51:15;9.40;99.90
28761;DHT22;15917;50.014;8.352;2024-02-23T12:53:41;9.30;99.90
28761;DHT22;15917;50.014;8.352;2024-02-23T12:56:09;9.30;99.90
28761;DHT22;15917;50.014;8.352;2024-02-23T12:58:37;9.40;99.90
28761;DHT22;15917;50.014;8.352;2024-02-23T13:01:03;9.50;99.90
28761;DHT22;15917;50.014;8.352;2024-02-23T13:03:29;9.60;99.90
28761;DHT22;15917;50.014;8.352;2024-02-23T13:05:55;9.60;99.90
28761;DHT22;15917;50.014;8.352;2024-02-23T13:08:22;9.70;99.90
28761;DHT22;15917;50.014;8.352;2024-02-23T13:10:48;9.70;99.90
28761;DHT22;15917;50.014;8.352;2024-02-23T13:13:14;9.70;99.90
28761;DHT22;15917;50.014;8.352;2024-02-23T13:15:41;9.60;99.90
28761;DHT22;15917;50.014;8.352;2024-02-23T13:18:07;9.60;99.90
28761;DHT22;15917;50.014;8.352;2024-02-23T13:20:33;9.50;99.90
28761;DHT22;15917;50.014;8.352;2024-02-23T13:22:58;9.40;99.90
28761;DHT22;15917;50.014;8.352;2024-02-23T13:25:24;9.40;99.90
28761;DHT22;15917;50.014;8.352;2024-02-23T13:27:49;9.50;99.90
28761;DHT22;15917;50.014;8.352;2024-02-23T13:30:15;9.50;99.90
28761;DHT22;15917;50.014;8.352;2024-02-23T13:32:42;9.60;99.90
28761;DHT22;15917;50.014;8.352;2024-02-23T13:35:08;9.70;99.90
28761;DHT22;15917;50.014;8.352;2024-02-23T13:37:34;9.80;99.90
28761;DHT22;15917;50.014;8.352;2024-02-23T13:40:00;9.90;99.90
28761;DHT22;15917;50.014;8.352;2024-02-23T13:42:26;10.00;99.90
28761;DHT22;15917;50.014;8.352;2024-02-23T13:44:52;10.10;99.90
28761;DHT22;15917;50.014;8.352;2024-02-23T13:47:17;10.10;99.90
28761;DHT22;15917;50.014;8.352;2024-02-23T13:49:43;10.20;99.90
28761;DHT22;15917;50.014;8.352;2024-02-23T13:52:08;10.30;99.90
28761;DHT22;15917;50.014;8.352;2024-02-23T13:54:34;10.20;99.90
28761;DHT22;15917;50.014;8.352;2024-02-23T13:57:00;10.10;99.90
28761;DHT22;15917;50.014;8.352;2024-02-23T13:59:25;10.20;99.90
28761;DHT22;15917;50.014;8.352;2024-02-23T14:01:51;10.20;99.90
28761;DHT22;15917;50.014;8.352;2024-02-23T14:04:17;10.40;99.90
28761;DHT22;15917;50.014;8.352;2024-02-23T14:06:42;10.70;99.90
28761;DHT22;15917;50.014;8.352;2024-02-23T14:09:09;10.90;99.90
28761;DHT22;15917;50.014;8.352;2024-02-23T14:11:35;10.90;99.90
28761;DHT22;15917;50.014;8.352;2024-02-23T14:14:01;10.80;99.90
28761;DHT22;15917;50.014;8.352;2024-02-23T14:16:28;10.70;99.90
28761;DHT22;15917;50.014;8.352;2024-02-23T14:18:54;10.60;99.90
28761;DHT22;15917;50.014;8.352;2024-02-23T14:21:19;10.50;99.90
28761;DHT22;15917;50.014;8.352;2024-02-23T14:23:46;10.60;99.90
28761;DHT22;15917;50.014;8.352;2024-02-23T14:26:12;10.60;99.90
28761;DHT22;15917;50.014;8.352;2024-02-23T14:28:38;10.60;99.90
28761;DHT22;15917;50.014;8.352;2024-02-23T14:31:04;10.50;99.90
28761;DHT22;15917;50.014;8.352;2024-02-23T14:33:30;10.70;99.90
28761;DHT22;15917;50.014;8.352;2024-02-23T14:35:55;11.20;99.90
28761;DHT22;15917;50.014;8.352;2024-02-23T14:38:21;11.40;99.90
28761;DHT22;15917;50.014;8.352;2024-02-23T14:40:47;11.40;99.90
28761;DHT22;15917;50.014;8.352;2024-02-23T14:43:13;11.30;99.90
28761;DHT22;15917;50.014;8.352;2024-02-23T14:45:40;11.00;99.90
28761;DHT22;15917;50.014;8.352;2024-02-23T14:48:07;10.80;99.90
28761;DHT22;15917;50.014;8.352;2024-02-23T14:50:32;10.70;99.90
28761;DHT22;15917;50.014;8.352;2024-02-23T14:52:58;10.50;99.90
28761;DHT22;15917;50.014;8.352;2024-02-23T14:55:24;10.40;99.90
28761;DHT22;15917;50.014;8.352;2024-02-23T14:57:49;10.40;99.90
28761;DHT22;15917;50.014;8.352;2024-02-23T15:00:15;10.40;99.90
28761;DHT22;15917;50.014;8.352;2024-02-23T15:02:41;10.40;99.90
28761;DHT22;15917;50.014;8.352;2024-02-23T15:05:07;10.80;99.90
28761;DHT22;15917;50.014;8.352;2024-02-23T15:07:33;10.90;99.90
28761;DHT22;15917;50.014;8.352;2024-02-23T15:09:59;10.70;99.90
28761;DHT22;15917;50.014;8.352;2024-02-23T15:12:27;10.50;99.90
28761;DHT22;15917;50.014;8.352;2024-02-23T15:14:54;10.40;99.90
28761;DHT22;15917;50.014;8.352;2024-02-23T15:17:20;10.30;99.90
28761;DHT22;15917;50.014;8.352;2024-02-23T15:19:45;10.20;99.90
28761;DHT22;15917;50.014;8.352;2024-02-23T15:22:11;10.10;99.90
28761;DHT22;15917;50.014;8.352;2024-02-23T15:24:40;10.00;99.90
28761;DHT22;15917;50.014;8.352;2024-02-23T15:27:08;9.90;99.90
28761;DHT22;15917;50.014;8.352;2024-02-23T15:29:34;9.90;99.90
28761;DHT22;15917;50.014;8.352;2024-02-23T15:32:00;9.90;99.90
28761;DHT22;15917;50.014;8.352;2024-02-23T15:34:26;9.80;99.90
28761;DHT22;15917;50.014;8.352;2024-02-23T15:36:52;9.80;99.90